sensor_id;sensor_type;location;lat;lon;timestamp;temperature;humidity
20492;DHT22;10404;51.468;6.762;2024-02-21T00:00:13;8.30;82.80
20492;DHT22;10404;51.468;6.762;2024-02-21T00:02:40;8.30;82.90
20492;DHT22;10404;51.468;6.762;2024-02-21T00:05:05;8.20;82.80
20492;DHT22;10404;51.468;6.762;2024-02-21T00:07:31;8.30;82.80
20492;DHT22;10404;51.468;6.762;2024-02-21T00:09:56;8.30;82.80
20492;DHT22;10404;51.468;6.762;2024-02-21T00:12:22;8.30;82.90
20492;DHT22;10404;51.468;6.762;2024-02-21T00:14:47;8.30;82.80
20492;DHT22;10404;51.468;6.762;2024-02-21T00:17:13;8.20;82.90
20492;DHT22;10404;51.468;6.762;2024-02-21T00:19:39;8.20;82.80
20492;DHT22;10404;51.468;6.762;2024-02-21T00:22:04;8.30;82.90
20492;DHT22;10404;51.468;6.762;2024-02-21T00:24:30;8.20;82.80
20492;DHT22;10404;51.468;6.762;2024-02-21T00:26:55;8.20;82.80
20492;DHT22;10404;51.468;6.762;2024-02-21T00:29:21;8.20;82.90
20492;DHT22;10404;51.468;6.762;2024-02-21T00:31:48;8.20;82.80
20492;DHT22;10404;51.468;6.762;2024-02-21T00:34:14;8.20;82.80
20492;DHT22;10404;51.468;6.762;2024-02-21T00:36:40;8.20;82.90
20492;DHT22;10404;51.468;6.762;2024-02-21T00:39:05;8.20;82.80
20492;DHT22;10404;51.468;6.762;2024-02-21T00:41:31;8.20;82.90
20492;DHT22;10404;51.468;6.762;2024-02-21T00:43:57;8.20;82.90
20492;DHT22;10404;51.468;6.762;2024-02-21T00:46:23;8.20;82.90
20492;DHT22;10404;51.468;6.762;2024-02-21T00:48:48;8.20;82.90
20492;DHT22;10404;51.468;6.762;2024-02-21T00:51:15;8.20;83.00
20492;DHT22;10404;51.468;6.762;2024-02-21T00:53:41;8.20;82.90
20492;DHT22;10404;51.468;6.762;2024-02-21T00:56:07;8.20;82.90
20492;DHT22;10404;51.468;6.762;2024-02-21T00:58:32;8.20;82.90
20492;DHT22;10404;51.468;6.762;2024-02-21T01:00:58;8.20;83.00
20492;DHT22;10404;51.468;6.762;2024-02-21T01:03:23;8.20;82.90
20492;DHT22;10404;51.468;6.762;2024-02-21T01:05:49;8.20;83.00
20492;DHT22;10404;51.468;6.762;2024-02-21T01:08:14;8.20;83.00
20492;DHT22;10404;51.468;6.762;2024-02-21T01:10:40;8.20;83.00
20492;DHT22;10404;51.468;6.762;2024-02-21T01:13:06;8.20;83.00
20492;DHT22;10404;51.468;6.762;2024-02-21T01:15:32;8.20;83.00
20492;DHT22;10404;51.468;6.762;2024-02-21T01:17:58;8.20;83.00
20492;DHT22;10404;51.468;6.762;2024-02-21T01:20:24;8.20;83.00
20492;DHT22;10404;51.468;6.762;2024-02-21T01:22:49;8.20;83.00
20492;DHT22;10404;51.468;6.762;2024-02-21T01:25:15;8.20;83.00
20492;DHT22;10404;51.468;6.762;2024-02-21T01:27:41;8.20;83.00
20492;DHT22;10404;51.468;6.762;2024-02-21T01:30:07;8.10;83.00
20492;DHT22;10404;51.468;6.762;2024-02-21T01:32:33;8.20;83.00
20492;DHT22;10404;51.468;6.762;2024-02-21T01:34:59;8.20;83.00
20492;DHT22;10404;51.468;6.762;2024-02-21T01:37:24;8.20;83.00
20492;DHT22;10404;51.468;6.762;2024-02-21T01:39:50;8.20;83.00
20492;DHT22;10404;51.468;6.762;2024-02-21T01:42:16;8.20;83.00
20492;DHT22;10404;51.468;6.762;2024-02-21T01:44:41;8.20;83.10
20492;DHT22;10404;51.468;6.762;2024-02-21T01:47:07;8.20;83.00
20492;DHT22;10404;51.468;6.762;2024-02-21T01:49:33;8.20;83.00
20492;DHT22;10404;51.468;6.762;2024-02-21T01:52:00;8.20;83.00
20492;DHT22;10404;51.468;6.762;2024-02-21T01:54:26;8.10;83.00
20492;DHT22;10404;51.468;6.762;2024-02-21T01:56:54;8.10;83.00
20492;DHT22;10404;51.468;6.762;2024-02-21T01:59:21;8.20;83.00
20492;DHT22;10404;51.468;6.762;2024-02-21T02:01:47;8.20;83.00
20492;DHT22;10404;51.468;6.762;2024-02-21T02:04:13;8.10;83.00
20492;DHT22;10404;51.468;6.762;2024-02-21T02:06:39;8.10;83.10
20492;DHT22;10404;51.468;6.762;2024-02-21T02:09:05;8.10;83.00
20492;DHT22;10404;51.468;6.762;2024-02-21T02:11:32;8.10;83.10
20492;DHT22;10404;51.468;6.762;2024-02-21T02:13:57;8.10;83.10
20492;DHT22;10404;51.468;6.762;2024-02-21T02:16:23;8.10;83.10
20492;DHT22;10404;51.468;6.762;2024-02-21T02:18:49;8.10;83.00
20492;DHT22;10404;51.468;6.762;2024-02-21T02:21:24;8.10;83.10
20492;DHT22;10404;51.468;6.762;2024-02-21T02:23:52;8.10;83.10
20492;DHT22;10404;51.468;6.762;2024-02-21T02:26:18;8.10;83.00
20492;DHT22;10404;51.468;6.762;2024-02-21T02:28:43;8.10;83.10
20492;DHT22;10404;51.468;6.762;2024-02-21T02:31:09;8.10;83.00
20492;DHT22;10404;51.468;6.762;2024-02-21T02:33:34;8.10;83.10
20492;DHT22;10404;51.468;6.762;2024-02-21T02:36:00;8.10;83.10
20492;DHT22;10404;51.468;6.762;2024-02-21T02:38:25;8.10;83.10
20492;DHT22;10404;51.468;6.762;2024-02-21T02:40:51;8.10;83.10
20492;DHT22;10404;51.468;6.762;2024-02-21T02:43:16;8.10;83.20
20492;DHT22;10404;51.468;6.762;2024-02-21T02:45:42;8.10;83.10
20492;DHT22;10404;51.468;6.762;2024-02-21T02:48:08;8.00;83.20
20492;DHT22;10404;51.468;6.762;2024-02-21T02:50:33;8.00;83.10
20492;DHT22;10404;51.468;6.762;2024-02-21T02:52:59;8.00;83.20
20492;DHT22;10404;51.468;6.762;2024-02-21T02:55:24;8.00;83.20
20492;DHT22;10404;51.468;6.762;2024-02-21T02:57:51;8.00;83.20
20492;DHT22;10404;51.468;6.762;2024-02-21T03:00:17;8.00;83.20
20492;DHT22;10404;51.468;6.762;2024-02-21T03:02:45;8.00;83.20
20492;DHT22;10404;51.468;6.762;2024-02-21T03:05:13;8.00;83.20
20492;DHT22;10404;51.468;6.762;2024-02-21T03:07:40;8.00;83.20
20492;DHT22;10404;51.468;6.762;2024-02-21T03:10:06;8.00;83.20
20492;DHT22;10404;51.468;6.762;2024-02-21T03:12:31;8.00;83.20
20492;DHT22;10404;51.468;6.762;2024-02-21T03:14:57;8.00;83.10
20492;DHT22;10404;51.468;6.762;2024-02-21T03:17:23;8.00;83.20
20492;DHT22;10404;51.468;6.762;2024-02-21T03:19:48;8.00;83.20
20492;DHT22;10404;51.468;6.762;2024-02-21T03:22:15;8.00;83.20
20492;DHT22;10404;51.468;6.762;2024-02-21T03:24:41;8.00;83.20
20492;DHT22;10404;51.468;6.762;2024-02-21T03:27:07;8.00;83.20
20492;DHT22;10404;51.468;6.762;2024-02-21T03:29:33;7.90;83.20
20492;DHT22;10404;51.468;6.762;2024-02-21T03:31:59;7.90;83.20
20492;DHT22;10404;51.468;6.762;2024-02-21T03:34:24;7.90;83.20
20492;DHT22;10404;51.468;6.762;2024-02-21T03:36:50;7.90;83.30
20492;DHT22;10404;51.468;6.762;2024-02-21T03:39:15;7.80;83.20
20492;DHT22;10404;51.468;6.762;2024-02-21T03:41:41;7.80;83.20
20492;DHT22;10404;51.468;6.762;2024-02-21T03:44:07;7.90;83.20
20492;DHT22;10404;51.468;6.762;2024-02-21T03:46:32;7.90;83.20
20492;DHT22;10404;51.468;6.762;2024-02-21T03:48:58;7.80;83.30
20492;DHT22;10404;51.468;6.762;2024-02-21T03:51:23;7.80;83.30
20492;DHT22;10404;51.468;6.762;2024-02-21T03:53:49;7.80;83.30
20492;DHT22;10404;51.468;6.762;2024-02-21T03:56:15;7.80;83.30
20492;DHT22;10404;51.468;6.762;2024-02-21T03:58:40;7.80;83.30
20492;DHT22;10404;51.468;6.762;2024-02-21T04:01:06;7.80;83.30
20492;DHT22;10404;51.468;6.762;2024-02-21T04:03:31;7.80;83.30
20492;DHT22;10404;51.468;6.762;2024-02-21T04:05:57;7.80;83.20
20492;DHT22;10404;51.468;6.762;2024-02-21T04:08:23;7.80;83.30
20492;DHT22;10404;51.468;6.762;2024-02-21T04:10:49;7.80;83.30
20492;DHT22;10404;51.468;6.762;2024-02-21T04:13:14;7.80;83.30
20492;DHT22;10404;51.468;6.762;2024-02-21T04:15:40;7.80;83.30
20492;DHT22;10404;51.468;6.762;2024-02-21T04:18:06;7.80;83.30
20492;DHT22;10404;51.468;6.762;2024-02-21T04:20:31;7.80;83.30
20492;DHT22;10404;51.468;6.762;2024-02-21T04:22:57;7.80;83.30
20492;DHT22;10404;51.468;6.762;2024-02-21T04:25:23;7.80;83.40
20492;DHT22;10404;51.468;6.762;2024-02-21T04:27:49;7.80;83.30
20492;DHT22;10404;51.468;6.762;2024-02-21T04:30:14;7.80;83.30
20492;DHT22;10404;51.468;6.762;2024-02-21T04:32:41;7.80;83.30
20492;DHT22;10404;51.468;6.762;2024-02-21T04:35:07;7.80;83.30
20492;DHT22;10404;51.468;6.762;2024-02-21T04:37:33;7.80;83.40
20492;DHT22;10404;51.468;6.762;2024-02-21T04:39:58;7.80;83.30
20492;DHT22;10404;51.468;6.762;2024-02-21T04:42:24;7.80;83.30
20492;DHT22;10404;51.468;6.762;2024-02-21T04:44:50;7.80;83.30
20492;DHT22;10404;51.468;6.762;2024-02-21T04:47:15;7.80;83.40
20492;DHT22;10404;51.468;6.762;2024-02-21T04:49:41;7.80;83.40
20492;DHT22;10404;51.468;6.762;2024-02-21T04:52:06;7.80;83.30
20492;DHT22;10404;51.468;6.762;2024-02-21T04:54:32;7.80;83.40
20492;DHT22;10404;51.468;6.762;2024-02-21T04:56:58;7.80;83.40
20492;DHT22;10404;51.468;6.762;2024-02-21T04:59:23;7.80;83.30
20492;DHT22;10404;51.468;6.762;2024-02-21T05:01:49;7.80;83.30
20492;DHT22;10404;51.468;6.762;2024-02-21T05:04:14;7.80;83.30
20492;DHT22;10404;51.468;6.762;2024-02-21T05:06:41;7.80;83.30
20492;DHT22;10404;51.468;6.762;2024-02-21T05:09:07;7.80;83.40
20492;DHT22;10404;51.468;6.762;2024-02-21T05:11:36;7.80;83.30
20492;DHT22;10404;51.468;6.762;2024-02-21T05:14:03;7.80;83.30
20492;DHT22;10404;51.468;6.762;2024-02-21T05:16:29;7.80;83.30
20492;DHT22;10404;51.468;6.762;2024-02-21T05:18:54;7.80;83.30
20492;DHT22;10404;51.468;6.762;2024-02-21T05:21:22;7.80;83.30
20492;DHT22;10404;51.468;6.762;2024-02-21T05:23:49;7.80;83.30
20492;DHT22;10404;51.468;6.762;2024-02-21T05:26:20;7.80;83.30
20492;DHT22;10404;51.468;6.762;2024-02-21T05:28:46;7.80;83.30
20492;DHT22;10404;51.468;6.762;2024-02-21T05:31:15;7.80;83.30
20492;DHT22;10404;51.468;6.762;2024-02-21T05:33:41;7.80;83.30
20492;DHT22;10404;51.468;6.762;2024-02-21T05:36:06;7.80;83.30
20492;DHT22;10404;51.468;6.762;2024-02-21T05:38:32;7.80;83.30
20492;DHT22;10404;51.468;6.762;2024-02-21T05:40:57;7.80;83.30
20492;DHT22;10404;51.468;6.762;2024-02-21T05:43:23;7.80;83.30
20492;DHT22;10404;51.468;6.762;2024-02-21T05:45:48;7.80;83.30
20492;DHT22;10404;51.468;6.762;2024-02-21T05:48:14;7.80;83.30
20492;DHT22;10404;51.468;6.762;2024-02-21T05:50:39;7.80;83.30
20492;DHT22;10404;51.468;6.762;2024-02-21T05:53:05;7.80;83.30
20492;DHT22;10404;51.468;6.762;2024-02-21T05:55:31;7.80;83.30
20492;DHT22;10404;51.468;6.762;2024-02-21T05:57:56;7.80;83.30
20492;DHT22;10404;51.468;6.762;2024-02-21T06:00:22;7.80;83.30
20492;DHT22;10404;51.468;6.762;2024-02-21T06:02:47;7.80;83.30
20492;DHT22;10404;51.468;6.762;2024-02-21T06:05:13;7.80;83.30
20492;DHT22;10404;51.468;6.762;2024-02-21T06:07:38;7.80;83.30
20492;DHT22;10404;51.468;6.762;2024-02-21T06:10:07;7.80;83.30
20492;DHT22;10404;51.468;6.762;2024-02-21T06:12:33;7.80;83.30
20492;DHT22;10404;51.468;6.762;2024-02-21T06:14:58;7.80;83.30
20492;DHT22;10404;51.468;6.762;2024-02-21T06:17:24;7.80;83.30
20492;DHT22;10404;51.468;6.762;2024-02-21T06:19:49;7.80;83.30
20492;DHT22;10404;51.468;6.762;2024-02-21T06:22:15;7.80;83.30
20492;DHT22;10404;51.468;6.762;2024-02-21T06:24:40;7.80;83.30
20492;DHT22;10404;51.468;6.762;2024-02-21T06:27:06;7.80;83.30
20492;DHT22;10404;51.468;6.762;2024-02-21T06:29:32;7.80;83.30
20492;DHT22;10404;51.468;6.762;2024-02-21T06:31:58;7.80;83.30
20492;DHT22;10404;51.468;6.762;2024-02-21T06:34:24;7.80;83.30
20492;DHT22;10404;51.468;6.762;2024-02-21T06:36:50;7.80;83.20
20492;DHT22;10404;51.468;6.762;2024-02-21T06:39:16;7.80;83.30
20492;DHT22;10404;51.468;6.762;2024-02-21T06:41:41;7.80;83.30
20492;DHT22;10404;51.468;6.762;2024-02-21T06:44:07;7.80;83.20
20492;DHT22;10404;51.468;6.762;2024-02-21T06:46:33;7.80;83.20
20492;DHT22;10404;51.468;6.762;2024-02-21T06:48:59;7.80;83.20
20492;DHT22;10404;51.468;6.762;2024-02-21T06:51:29;7.80;83.20
20492;DHT22;10404;51.468;6.762;2024-02-21T06:53:55;7.80;83.30
20492;DHT22;10404;51.468;6.762;2024-02-21T06:56:22;7.80;83.30
20492;DHT22;10404;51.468;6.762;2024-02-21T06:58:52;7.80;83.30
20492;DHT22;10404;51.468;6.762;2024-02-21T07:01:17;7.80;83.30
20492;DHT22;10404;51.468;6.762;2024-02-21T07:03:43;7.80;83.20
20492;DHT22;10404;51.468;6.762;2024-02-21T07:06:08;7.80;83.20
20492;DHT22;10404;51.468;6.762;2024-02-21T07:08:34;7.80;83.20
20492;DHT22;10404;51.468;6.762;2024-02-21T07:10:59;7.80;83.20
20492;DHT22;10404;51.468;6.762;2024-02-21T07:13:25;7.80;83.20
20492;DHT22;10404;51.468;6.762;2024-02-21T07:15:51;7.80;83.20
20492;DHT22;10404;51.468;6.762;2024-02-21T07:18:16;7.80;83.20
20492;DHT22;10404;51.468;6.762;2024-02-21T07:20:42;7.80;83.30
20492;DHT22;10404;51.468;6.762;2024-02-21T07:23:08;7.80;83.20
20492;DHT22;10404;51.468;6.762;2024-02-21T07:25:34;7.80;83.20
20492;DHT22;10404;51.468;6.762;2024-02-21T07:27:59;7.80;83.20
20492;DHT22;10404;51.468;6.762;2024-02-21T07:30:25;7.80;83.20
20492;DHT22;10404;51.468;6.762;2024-02-21T07:32:51;7.80;83.20
20492;DHT22;10404;51.468;6.762;2024-02-21T07:35:18;7.80;83.10
20492;DHT22;10404;51.468;6.762;2024-02-21T07:37:43;7.80;83.10
20492;DHT22;10404;51.468;6.762;2024-02-21T07:40:16;7.80;83.20
20492;DHT22;10404;51.468;6.762;2024-02-21T07:42:42;7.80;83.20
20492;DHT22;10404;51.468;6.762;2024-02-21T07:45:08;7.80;83.10
20492;DHT22;10404;51.468;6.762;2024-02-21T07:47:34;7.80;83.10
20492;DHT22;10404;51.468;6.762;2024-02-21T07:50:01;7.80;83.10
20492;DHT22;10404;51.468;6.762;2024-02-21T07:52:26;7.80;83.10
20492;DHT22;10404;51.468;6.762;2024-02-21T07:54:52;7.80;83.00
20492;DHT22;10404;51.468;6.762;2024-02-21T07:57:17;7.80;83.00
20492;DHT22;10404;51.468;6.762;2024-02-21T07:59:43;7.80;83.00
20492;DHT22;10404;51.468;6.762;2024-02-21T08:02:09;7.80;83.00
20492;DHT22;10404;51.468;6.762;2024-02-21T08:04:34;7.80;83.00
20492;DHT22;10404;51.468;6.762;2024-02-21T08:07:00;7.80;82.90
20492;DHT22;10404;51.468;6.762;2024-02-21T08:09:29;7.80;83.00
20492;DHT22;10404;51.468;6.762;2024-02-21T08:11:55;7.80;83.00
20492;DHT22;10404;51.468;6.762;2024-02-21T08:14:21;7.80;83.00
20492;DHT22;10404;51.468;6.762;2024-02-21T08:16:47;7.80;82.90
20492;DHT22;10404;51.468;6.762;2024-02-21T08:19:13;7.80;83.00
20492;DHT22;10404;51.468;6.762;2024-02-21T08:21:38;7.80;83.00
20492;DHT22;10404;51.468;6.762;2024-02-21T08:24:04;7.80;83.00
20492;DHT22;10404;51.468;6.762;2024-02-21T08:26:30;7.80;83.00
20492;DHT22;10404;51.468;6.762;2024-02-21T08:28:57;7.80;83.00
20492;DHT22;10404;51.468;6.762;2024-02-21T08:31:26;7.80;83.00
20492;DHT22;10404;51.468;6.762;2024-02-21T08:34:00;7.90;82.90
20492;DHT22;10404;51.468;6.762;2024-02-21T08:36:35;7.90;83.00
20492;DHT22;10404;51.468;6.762;2024-02-21T08:39:02;7.90;83.00
20492;DHT22;10404;51.468;6.762;2024-02-21T08:41:33;7.90;83.00
20492;DHT22;10404;51.468;6.762;2024-02-21T08:43:59;8.00;83.00
20492;DHT22;10404;51.468;6.762;2024-02-21T08:46:25;8.00;82.90
20492;DHT22;10404;51.468;6.762;2024-02-21T08:48:51;8.00;82.90
20492;DHT22;10404;51.468;6.762;2024-02-21T08:51:17;8.00;82.90
20492;DHT22;10404;51.468;6.762;2024-02-21T08:53:43;8.00;82.90
20492;DHT22;10404;51.468;6.762;2024-02-21T08:56:09;8.00;82.90
20492;DHT22;10404;51.468;6.762;2024-02-21T08:58:36;8.00;82.80
20492;DHT22;10404;51.468;6.762;2024-02-21T09:01:05;8.00;82.80
20492;DHT22;10404;51.468;6.762;2024-02-21T09:03:32;8.00;82.70
20492;DHT22;10404;51.468;6.762;2024-02-21T09:05:59;8.00;82.80
20492;DHT22;10404;51.468;6.762;2024-02-21T09:08:25;8.00;82.80
20492;DHT22;10404;51.468;6.762;2024-02-21T09:10:51;8.00;82.80
20492;DHT22;10404;51.468;6.762;2024-02-21T09:13:16;8.00;82.70
20492;DHT22;10404;51.468;6.762;2024-02-21T09:15:42;8.00;82.70
20492;DHT22;10404;51.468;6.762;2024-02-21T09:18:08;8.00;82.60
20492;DHT22;10404;51.468;6.762;2024-02-21T09:20:33;8.10;82.60
20492;DHT22;10404;51.468;6.762;2024-02-21T09:22:59;8.10;82.60
20492;DHT22;10404;51.468;6.762;2024-02-21T09:25:25;8.10;82.50
20492;DHT22;10404;51.468;6.762;2024-02-21T09:27:50;8.10;82.40
20492;DHT22;10404;51.468;6.762;2024-02-21T09:30:17;8.10;82.40
20492;DHT22;10404;51.468;6.762;2024-02-21T09:32:44;8.10;82.40
20492;DHT22;10404;51.468;6.762;2024-02-21T09:35:10;8.10;82.40
20492;DHT22;10404;51.468;6.762;2024-02-21T09:37:35;8.20;82.40
20492;DHT22;10404;51.468;6.762;2024-02-21T09:40:01;8.20;82.50
20492;DHT22;10404;51.468;6.762;2024-02-21T09:42:40;8.20;82.10
20492;DHT22;10404;51.468;6.762;2024-02-21T09:45:26;8.20;82.20
20492;DHT22;10404;51.468;6.762;2024-02-21T09:48:30;8.20;82.40
20492;DHT22;10404;51.468;6.762;2024-02-21T09:50:57;8.30;82.00
20492;DHT22;10404;51.468;6.762;2024-02-21T09:53:24;8.30;81.90
20492;DHT22;10404;51.468;6.762;2024-02-21T09:55:50;8.30;82.00
20492;DHT22;10404;51.468;6.762;2024-02-21T09:58:16;8.30;82.00
20492;DHT22;10404;51.468;6.762;2024-02-21T10:00:42;8.30;81.90
20492;DHT22;10404;51.468;6.762;2024-02-21T10:03:07;8.30;81.50
20492;DHT22;10404;51.468;6.762;2024-02-21T10:05:37;8.40;82.00
20492;DHT22;10404;51.468;6.762;2024-02-21T10:08:04;8.40;81.80
20492;DHT22;10404;51.468;6.762;2024-02-21T10:10:39;8.40;81.70
20492;DHT22;10404;51.468;6.762;2024-02-21T10:13:05;8.40;82.10
20492;DHT22;10404;51.468;6.762;2024-02-21T10:15:30;8.40;81.30
20492;DHT22;10404;51.468;6.762;2024-02-21T10:18:00;8.40;81.30
20492;DHT22;10404;51.468;6.762;2024-02-21T10:20:27;8.40;82.00
20492;DHT22;10404;51.468;6.762;2024-02-21T10:23:05;8.50;81.00
20492;DHT22;10404;51.468;6.762;2024-02-21T10:25:36;8.50;80.80
20492;DHT22;10404;51.468;6.762;2024-02-21T10:28:12;8.50;81.30
20492;DHT22;10404;51.468;6.762;2024-02-21T10:30:37;8.50;81.10
20492;DHT22;10404;51.468;6.762;2024-02-21T10:33:05;8.50;81.20
20492;DHT22;10404;51.468;6.762;2024-02-21T10:35:32;8.50;81.20
20492;DHT22;10404;51.468;6.762;2024-02-21T10:37:59;8.50;81.00
20492;DHT22;10404;51.468;6.762;2024-02-21T10:40:28;8.60;80.60
20492;DHT22;10404;51.468;6.762;2024-02-21T10:43:02;8.60;80.90
20492;DHT22;10404;51.468;6.762;2024-02-21T10:45:31;8.60;81.00
20492;DHT22;10404;51.468;6.762;2024-02-21T10:48:11;8.60;81.10
20492;DHT22;10404;51.468;6.762;2024-02-21T10:53:42;8.60;81.10
20492;DHT22;10404;51.468;6.762;2024-02-21T10:58:47;8.60;80.40
20492;DHT22;10404;51.468;6.762;2024-02-21T11:01:14;8.60;80.10
20492;DHT22;10404;51.468;6.762;2024-02-21T11:03:42;8.70;79.90
20492;DHT22;10404;51.468;6.762;2024-02-21T11:06:10;8.70;80.00
20492;DHT22;10404;51.468;6.762;2024-02-21T11:08:36;8.80;80.00
20492;DHT22;10404;51.468;6.762;2024-02-21T11:11:02;8.80;79.80
20492;DHT22;10404;51.468;6.762;2024-02-21T11:13:35;8.80;80.00
20492;DHT22;10404;51.468;6.762;2024-02-21T11:16:08;8.80;79.80
20492;DHT22;10404;51.468;6.762;2024-02-21T11:18:35;8.90;79.60
20492;DHT22;10404;51.468;6.762;2024-02-21T11:21:01;8.90;79.50
20492;DHT22;10404;51.468;6.762;2024-02-21T11:23:27;8.90;79.70
20492;DHT22;10404;51.468;6.762;2024-02-21T11:26:17;8.90;79.60
20492;DHT22;10404;51.468;6.762;2024-02-21T11:28:44;9.00;79.60
20492;DHT22;10404;51.468;6.762;2024-02-21T11:31:14;9.00;79.40
20492;DHT22;10404;51.468;6.762;2024-02-21T11:33:40;9.00;79.60
20492;DHT22;10404;51.468;6.762;2024-02-21T11:36:08;9.00;79.60
20492;DHT22;10404;51.468;6.762;2024-02-21T11:38:34;9.00;79.20
20492;DHT22;10404;51.468;6.762;2024-02-21T11:40:59;9.10;79.10
20492;DHT22;10404;51.468;6.762;2024-02-21T11:43:25;9.20;79.20
20492;DHT22;10404;51.468;6.762;2024-02-21T11:45:58;9.20;79.20
20492;DHT22;10404;51.468;6.762;2024-02-21T11:48:24;9.20;79.00
20492;DHT22;10404;51.468;6.762;2024-02-21T11:50:54;9.20;79.10
20492;DHT22;10404;51.468;6.762;2024-02-21T11:53:20;9.20;79.00
20492;DHT22;10404;51.468;6.762;2024-02-21T11:55:46;9.30;79.00
20492;DHT22;10404;51.468;6.762;2024-02-21T11:58:11;9.40;78.80
20492;DHT22;10404;51.468;6.762;2024-02-21T12:00:37;9.40;78.80
20492;DHT22;10404;51.468;6.762;2024-02-21T12:03:07;9.40;78.80
20492;DHT22;10404;51.468;6.762;2024-02-21T12:05:33;9.40;78.50
20492;DHT22;10404;51.468;6.762;2024-02-21T12:07:59;9.40;78.50
20492;DHT22;10404;51.468;6.762;2024-02-21T12:10:26;9.50;78.40
20492;DHT22;10404;51.468;6.762;2024-02-21T12:12:53;9.50;78.40
20492;DHT22;10404;51.468;6.762;2024-02-21T12:15:20;9.50;78.40
20492;DHT22;10404;51.468;6.762;2024-02-21T12:17:46;9.50;78.60
20492;DHT22;10404;51.468;6.762;2024-02-21T12:20:11;9.60;78.50
20492;DHT22;10404;51.468;6.762;2024-02-21T12:22:38;9.60;78.20
20492;DHT22;10404;51.468;6.762;2024-02-21T12:25:24;9.60;78.30
20492;DHT22;10404;51.468;6.762;2024-02-21T12:27:51;9.60;78.20
20492;DHT22;10404;51.468;6.762;2024-02-21T12:30:17;9.70;78.30
20492;DHT22;10404;51.468;6.762;2024-02-21T12:32:43;9.70;78.00
20492;DHT22;10404;51.468;6.762;2024-02-21T12:35:08;9.70;78.20
20492;DHT22;10404;51.468;6.762;2024-02-21T12:37:34;9.80;78.00
20492;DHT22;10404;51.468;6.762;2024-02-21T12:40:00;9.80;78.30
20492;DHT22;10404;51.468;6.762;2024-02-21T12:42:26;9.80;78.00
20492;DHT22;10404;51.468;6.762;2024-02-21T12:44:52;9.90;78.10
20492;DHT22;10404;51.468;6.762;2024-02-21T12:47:18;9.90;77.70
20492;DHT22;10404;51.468;6.762;2024-02-21T12:49:45;10.00;77.60
20492;DHT22;10404;51.468;6.762;2024-02-21T12:52:11;10.00;78.00
20492;DHT22;10404;51.468;6.762;2024-02-21T12:54:36;10.00;77.60
20492;DHT22;10404;51.468;6.762;2024-02-21T12:57:02;10.00;77.50
20492;DHT22;10404;51.468;6.762;2024-02-21T12:59:29;10.10;77.20
20492;DHT22;10404;51.468;6.762;2024-02-21T13:01:54;10.10;77.30
20492;DHT22;10404;51.468;6.762;2024-02-21T13:04:20;10.20;77.10
20492;DHT22;10404;51.468;6.762;2024-02-21T13:06:48;10.20;76.90
20492;DHT22;10404;51.468;6.762;2024-02-21T13:09:14;10.20;77.20
20492;DHT22;10404;51.468;6.762;2024-02-21T13:11:40;10.30;76.80
20492;DHT22;10404;51.468;6.762;2024-02-21T13:14:06;10.30;77.10
20492;DHT22;10404;51.468;6.762;2024-02-21T13:16:32;10.30;76.50
20492;DHT22;10404;51.468;6.762;2024-02-21T13:18:59;10.40;76.90
20492;DHT22;10404;51.468;6.762;2024-02-21T13:21:25;10.40;77.10
20492;DHT22;10404;51.468;6.762;2024-02-21T13:23:51;10.40;77.10
20492;DHT22;10404;51.468;6.762;2024-02-21T13:26:16;10.50;77.30
20492;DHT22;10404;51.468;6.762;2024-02-21T13:28:42;10.50;77.40
20492;DHT22;10404;51.468;6.762;2024-02-21T13:31:10;10.50;77.00
20492;DHT22;10404;51.468;6.762;2024-02-21T13:33:35;10.60;77.00
20492;DHT22;10404;51.468;6.762;2024-02-21T13:36:02;10.60;77.20
20492;DHT22;10404;51.468;6.762;2024-02-21T13:38:28;10.70;77.40
20492;DHT22;10404;51.468;6.762;2024-02-21T13:40:54;10.70;77.30
20492;DHT22;10404;51.468;6.762;2024-02-21T13:43:19;10.70;76.80
20492;DHT22;10404;51.468;6.762;2024-02-21T13:46:01;10.70;76.30
20492;DHT22;10404;51.468;6.762;2024-02-21T13:48:35;10.80;77.20
20492;DHT22;10404;51.468;6.762;2024-02-21T13:51:01;10.80;77.00
20492;DHT22;10404;51.468;6.762;2024-02-21T13:53:28;10.80;77.00
20492;DHT22;10404;51.468;6.762;2024-02-21T13:55:53;10.90;76.90
20492;DHT22;10404;51.468;6.762;2024-02-21T13:58:19;10.90;76.50
20492;DHT22;10404;51.468;6.762;2024-02-21T14:00:45;10.90;76.90
20492;DHT22;10404;51.468;6.762;2024-02-21T14:03:11;11.00;77.10
20492;DHT22;10404;51.468;6.762;2024-02-21T14:05:36;11.00;77.10
20492;DHT22;10404;51.468;6.762;2024-02-21T14:08:02;11.00;77.00
20492;DHT22;10404;51.468;6.762;2024-02-21T14:10:28;11.00;76.90
20492;DHT22;10404;51.468;6.762;2024-02-21T14:12:53;11.00;77.20
20492;DHT22;10404;51.468;6.762;2024-02-21T14:15:20;11.10;77.00
20492;DHT22;10404;51.468;6.762;2024-02-21T14:17:45;11.00;76.90
20492;DHT22;10404;51.468;6.762;2024-02-21T14:20:11;11.00;76.70
20492;DHT22;10404;51.468;6.762;2024-02-21T14:22:39;11.10;76.80
20492;DHT22;10404;51.468;6.762;2024-02-21T14:25:05;11.10;76.60
20492;DHT22;10404;51.468;6.762;2024-02-21T14:27:31;11.10;76.70
20492;DHT22;10404;51.468;6.762;2024-02-21T14:29:56;11.10;76.60
20492;DHT22;10404;51.468;6.762;2024-02-21T14:32:22;11.10;76.60
20492;DHT22;10404;51.468;6.762;2024-02-21T14:34:48;11.10;76.80
20492;DHT22;10404;51.468;6.762;2024-02-21T14:37:14;11.10;76.00
20492;DHT22;10404;51.468;6.762;2024-02-21T14:39:40;11.10;76.50
20492;DHT22;10404;51.468;6.762;2024-02-21T14:42:06;11.10;76.50
20492;DHT22;10404;51.468;6.762;2024-02-21T14:44:32;11.20;76.10
20492;DHT22;10404;51.468;6.762;2024-02-21T14:46:58;11.20;76.60
20492;DHT22;10404;51.468;6.762;2024-02-21T14:49:23;11.30;76.00
20492;DHT22;10404;51.468;6.762;2024-02-21T14:51:50;11.30;76.30
20492;DHT22;10404;51.468;6.762;2024-02-21T14:54:16;11.30;76.20
20492;DHT22;10404;51.468;6.762;2024-02-21T14:56:41;11.30;76.50
20492;DHT22;10404;51.468;6.762;2024-02-21T14:59:07;11.30;76.70
20492;DHT22;10404;51.468;6.762;2024-02-21T15:01:36;11.30;76.40
20492;DHT22;10404;51.468;6.762;2024-02-21T15:04:05;11.30;76.60
20492;DHT22;10404;51.468;6.762;2024-02-21T15:06:31;11.30;76.70
20492;DHT22;10404;51.468;6.762;2024-02-21T15:08:57;11.30;76.50
20492;DHT22;10404;51.468;6.762;2024-02-21T15:11:23;11.40;76.60
20492;DHT22;10404;51.468;6.762;2024-02-21T15:13:49;11.30;76.50
20492;DHT22;10404;51.468;6.762;2024-02-21T15:16:15;11.30;76.60
20492;DHT22;10404;51.468;6.762;2024-02-21T15:18:44;11.30;76.30
20492;DHT22;10404;51.468;6.762;2024-02-21T15:21:09;11.30;76.40
20492;DHT22;10404;51.468;6.762;2024-02-21T15:23:39;11.30;76.50
20492;DHT22;10404;51.468;6.762;2024-02-21T15:26:06;11.30;76.60
20492;DHT22;10404;51.468;6.762;2024-02-21T15:28:31;11.30;76.50
20492;DHT22;10404;51.468;6.762;2024-02-21T15:30:57;11.30;76.60
20492;DHT22;10404;51.468;6.762;2024-02-21T15:33:23;11.30;76.70
20492;DHT22;10404;51.468;6.762;2024-02-21T15:35:49;11.30;76.40
20492;DHT22;10404;51.468;6.762;2024-02-21T15:38:14;11.30;76.10
20492;DHT22;10404;51.468;6.762;2024-02-21T15:40:40;11.30;76.70
20492;DHT22;10404;51.468;6.762;2024-02-21T15:43:05;11.30;76.50